createdAt,value
2022-12-11T03:51:02.229Z,86.51
2022-12-11T04:21:24.815Z,86.12
2022-12-11T04:51:29.626Z,86.79
2022-12-11T05:21:35.351Z,86.13
2022-12-11T05:51:41.279Z,89.00
2022-12-11T06:21:46.552Z,88.77
2022-12-11T06:51:50.696Z,88.32
2022-12-11T07:21:54.873Z,88.96
2022-12-11T07:51:59.005Z,88.77
2022-12-11T08:22:03.314Z,85.52
2022-12-11T08:52:08.190Z,84.00
2022-12-11T09:22:12.909Z,85.07
2022-12-11T10:18:31.110Z,81.87
2022-12-11T10:48:35.512Z,80.67
2022-12-11T11:18:41.809Z,83.05
2022-12-11T11:48:52.469Z,82.01
2022-12-11T12:19:04.964Z,81.27
2022-12-11T12:49:14.064Z,81.82
2022-12-11T13:19:29.776Z,82.42
2022-12-11T13:49:36.870Z,82.28
2022-12-11T14:19:41.136Z,81.26
2022-12-11T14:49:48.879Z,79.71
2022-12-11T15:19:54.992Z,80.31
2022-12-11T15:50:01.932Z,81.33
2022-12-11T16:20:07.576Z,82.68
2022-12-11T16:50:13.924Z,81.72
2022-12-11T17:20:18.274Z,82.36
2022-12-11T17:50:22.380Z,83.12
2022-12-11T18:20:26.645Z,82.17
2022-12-11T18:50:30.810Z,81.99
2022-12-11T19:20:57.969Z,83.50
2022-12-11T19:51:06.033Z,84.29
2022-12-11T20:21:13.131Z,84.87
2022-12-11T20:51:25.673Z,83.85
2022-12-11T21:21:32.550Z,84.63
2022-12-11T21:51:43.959Z,85.14
2022-12-11T22:21:50.993Z,86.49
2022-12-11T22:51:57.246Z,85.65
2022-12-11T23:22:01.282Z,86.41
2022-12-11T23:52:05.878Z,86.25
